Oak Grove, Oregon
Current Conditions -  °F | °C
As of 2:53 PM on Thursday 20 Nov 2014 (Local Time) from KPDX Reporting Station
Broken Clouds Broken Clouds  
Wind Chill:   Ceiling: 11000
Heat Index:   Visibility: 10mi
Dew Point:   Wind: 8mph
Humidity: 74%   Direction: 130°SE
Pressure: 29.99"   Gusts: NA
Location:  45.42°N, 122.64°W
Report Text: KPDX 202253Z 13007KT 10SM FEW070 BKN110 07/03 A2999 RMK AO2 SLP154 T00720028
Loading
Personal Weather Stations






























Interactive Weather Map New forecast layout! Learn more

10-Day Weather Forecast

Advertisements
Track Severe Weather on mobile